sensor_id;sensor_type;location;lat;lon;timestamp;pressure;altitude;pressure_sealevel;temperature;humidity
64616;BME280;51027;42.162;24.754;2023-05-22T00:01:18;99391.50;;;16.54;100.00
64616;BME280;51027;42.162;24.754;2023-05-22T00:03:44;99390.25;;;16.59;100.00
64616;BME280;51027;42.162;24.754;2023-05-22T00:06:10;99386.63;;;16.60;100.00
64616;BME280;51027;42.162;24.754;2023-05-22T00:08:36;99387.03;;;16.54;100.00
64616;BME280;51027;42.162;24.754;2023-05-22T00:11:01;99392.69;;;16.50;100.00
64616;BME280;51027;42.162;24.754;2023-05-22T00:13:27;99389.19;;;16.49;100.00
64616;BME280;51027;42.162;24.754;2023-05-22T00:15:53;99336.75;;;16.26;100.00
64616;BME280;51027;42.162;24.754;2023-05-22T00:18:18;99388.78;;;16.55;100.00
64616;BME280;51027;42.162;24.754;2023-05-22T00:20:44;99393.31;;;16.53;100.00
64616;BME280;51027;42.162;24.754;2023-05-22T00:23:11;99375.88;;;16.36;100.00
64616;BME280;51027;42.162;24.754;2023-05-22T00:25:36;99387.59;;;16.59;100.00
64616;BME280;51027;42.162;24.754;2023-05-22T00:28:03;99386.84;;;16.57;100.00
64616;BME280;51027;42.162;24.754;2023-05-22T00:30:29;99383.13;;;16.60;100.00
64616;BME280;51027;42.162;24.754;2023-05-22T00:32:54;99393.00;;;16.58;100.00
64616;BME280;51027;42.162;24.754;2023-05-22T00:35:20;99399.06;;;16.60;100.00
64616;BME280;51027;42.162;24.754;2023-05-22T00:37:46;99374.03;;;16.24;100.00
64616;BME280;51027;42.162;24.754;2023-05-22T00:40:12;99406.06;;;16.35;100.00
64616;BME280;51027;42.162;24.754;2023-05-22T00:42:38;99393.63;;;16.36;100.00
64616;BME280;51027;42.162;24.754;2023-05-22T00:45:04;99406.25;;;16.32;100.00
64616;BME280;51027;42.162;24.754;2023-05-22T00:47:30;99409.66;;;16.34;100.00
64616;BME280;51027;42.162;24.754;2023-05-22T00:49:57;99404.56;;;16.31;100.00
64616;BME280;51027;42.162;24.754;2023-05-22T00:52:22;99401.91;;;16.31;100.00
64616;BME280;51027;42.162;24.754;2023-05-22T00:54:49;99399.91;;;16.35;100.00
64616;BME280;51027;42.162;24.754;2023-05-22T00:57:15;99398.31;;;16.45;100.00
64616;BME280;51027;42.162;24.754;2023-05-22T00:59:42;99390.75;;;16.39;100.00
64616;BME280;51027;42.162;24.754;2023-05-22T01:02:08;99394.59;;;16.48;100.00
64616;BME280;51027;42.162;24.754;2023-05-22T01:04:34;99398.84;;;16.50;100.00
64616;BME280;51027;42.162;24.754;2023-05-22T01:07:01;99393.41;;;16.39;100.00
64616;BME280;51027;42.162;24.754;2023-05-22T01:09:28;99401.84;;;16.58;100.00
64616;BME280;51027;42.162;24.754;2023-05-22T01:12:18;99398.63;;;16.53;100.00
64616;BME280;51027;42.162;24.754;2023-05-22T01:14:58;99396.53;;;16.58;100.00
64616;BME280;51027;42.162;24.754;2023-05-22T01:20:10;99405.38;;;16.19;100.00
64616;BME280;51027;42.162;24.754;2023-05-22T01:31:30;99363.47;;;15.97;100.00
64616;BME280;51027;42.162;24.754;2023-05-22T01:33:59;99390.41;;;16.18;100.00
64616;BME280;51027;42.162;24.754;2023-05-22T01:36:29;99393.81;;;16.20;100.00
64616;BME280;51027;42.162;24.754;2023-05-22T01:38:57;99392.41;;;16.15;100.00
64616;BME280;51027;42.162;24.754;2023-05-22T01:41:23;99387.13;;;16.27;100.00
64616;BME280;51027;42.162;24.754;2023-05-22T01:43:48;99377.13;;;16.31;100.00
64616;BME280;51027;42.162;24.754;2023-05-22T01:46:14;99378.22;;;16.41;100.00
64616;BME280;51027;42.162;24.754;2023-05-22T01:48:39;99380.47;;;16.47;100.00
64616;BME280;51027;42.162;24.754;2023-05-22T01:51:24;99345.75;;;16.23;100.00
64616;BME280;51027;42.162;24.754;2023-05-22T01:54:17;99381.41;;;16.46;100.00
64616;BME280;51027;42.162;24.754;2023-05-22T01:56:55;99381.41;;;16.46;100.00
64616;BME280;51027;42.162;24.754;2023-05-22T01:59:39;99384.16;;;16.45;100.00
64616;BME280;51027;42.162;24.754;2023-05-22T02:02:09;99368.00;;;16.35;100.00
64616;BME280;51027;42.162;24.754;2023-05-22T02:04:42;99389.78;;;16.40;100.00
64616;BME280;51027;42.162;24.754;2023-05-22T02:07:10;99383.84;;;16.36;100.00
64616;BME280;51027;42.162;24.754;2023-05-22T02:09:38;99370.53;;;16.24;100.00
64616;BME280;51027;42.162;24.754;2023-05-22T02:12:06;99379.16;;;16.27;100.00
64616;BME280;51027;42.162;24.754;2023-05-22T02:14:32;99394.31;;;16.12;100.00
64616;BME280;51027;42.162;24.754;2023-05-22T02:16:58;99391.88;;;16.22;100.00
64616;BME280;51027;42.162;24.754;2023-05-22T02:19:26;99390.19;;;16.34;100.00
64616;BME280;51027;42.162;24.754;2023-05-22T02:21:52;99380.97;;;16.39;100.00
64616;BME280;51027;42.162;24.754;2023-05-22T02:24:20;99391.16;;;16.33;100.00
64616;BME280;51027;42.162;24.754;2023-05-22T02:26:47;99388.13;;;16.12;100.00
64616;BME280;51027;42.162;24.754;2023-05-22T02:29:13;99380.13;;;16.26;100.00
64616;BME280;51027;42.162;24.754;2023-05-22T02:31:38;99386.28;;;16.39;100.00
64616;BME280;51027;42.162;24.754;2023-05-22T02:34:04;99399.25;;;16.44;100.00
64616;BME280;51027;42.162;24.754;2023-05-22T02:36:30;99403.25;;;16.24;100.00
64616;BME280;51027;42.162;24.754;2023-05-22T02:38:57;99400.75;;;16.35;100.00
64616;BME280;51027;42.162;24.754;2023-05-22T02:41:22;99395.13;;;16.40;100.00
64616;BME280;51027;42.162;24.754;2023-05-22T02:43:48;99388.03;;;16.13;100.00
64616;BME280;51027;42.162;24.754;2023-05-22T02:46:13;99397.06;;;16.11;100.00
64616;BME280;51027;42.162;24.754;2023-05-22T02:48:39;99400.31;;;16.29;100.00
64616;BME280;51027;42.162;24.754;2023-05-22T02:51:04;99391.50;;;16.41;100.00
64616;BME280;51027;42.162;24.754;2023-05-22T02:53:30;99390.34;;;16.45;100.00
64616;BME280;51027;42.162;24.754;2023-05-22T02:55:57;99393.31;;;16.40;100.00
64616;BME280;51027;42.162;24.754;2023-05-22T02:58:23;99392.84;;;16.34;100.00
64616;BME280;51027;42.162;24.754;2023-05-22T03:00:49;99390.31;;;16.32;100.00
64616;BME280;51027;42.162;24.754;2023-05-22T03:03:17;99389.34;;;16.33;100.00
64616;BME280;51027;42.162;24.754;2023-05-22T03:05:42;99391.53;;;16.14;100.00
64616;BME280;51027;42.162;24.754;2023-05-22T03:08:08;99401.56;;;16.23;100.00
64616;BME280;51027;42.162;24.754;2023-05-22T03:10:34;99396.69;;;16.30;100.00
64616;BME280;51027;42.162;24.754;2023-05-22T03:12:59;99400.53;;;16.26;100.00
64616;BME280;51027;42.162;24.754;2023-05-22T03:15:25;99390.28;;;16.20;100.00
64616;BME280;51027;42.162;24.754;2023-05-22T03:17:50;99383.00;;;16.36;100.00
64616;BME280;51027;42.162;24.754;2023-05-22T03:20:16;99389.91;;;16.38;100.00
64616;BME280;51027;42.162;24.754;2023-05-22T03:22:42;99393.53;;;16.37;100.00
64616;BME280;51027;42.162;24.754;2023-05-22T03:25:09;99403.38;;;16.23;100.00
64616;BME280;51027;42.162;24.754;2023-05-22T03:27:35;99380.13;;;16.26;100.00
64616;BME280;51027;42.162;24.754;2023-05-22T03:30:03;99402.84;;;16.30;100.00
64616;BME280;51027;42.162;24.754;2023-05-22T03:32:29;99383.28;;;16.19;100.00
64616;BME280;51027;42.162;24.754;2023-05-22T03:34:54;99395.22;;;16.38;100.00
64616;BME280;51027;42.162;24.754;2023-05-22T03:37:20;99389.91;;;16.38;100.00
64616;BME280;51027;42.162;24.754;2023-05-22T03:39:45;99393.09;;;16.43;100.00
64616;BME280;51027;42.162;24.754;2023-05-22T03:42:11;99393.59;;;16.23;100.00
64616;BME280;51027;42.162;24.754;2023-05-22T03:44:38;99402.47;;;16.49;100.00
64616;BME280;51027;42.162;24.754;2023-05-22T03:47:03;99385.88;;;16.46;100.00
64616;BME280;51027;42.162;24.754;2023-05-22T03:49:29;99405.34;;;16.46;100.00
64616;BME280;51027;42.162;24.754;2023-05-22T03:51:54;99400.97;;;16.45;100.00
64616;BME280;51027;42.162;24.754;2023-05-22T03:54:19;99400.66;;;16.50;100.00
64616;BME280;51027;42.162;24.754;2023-05-22T03:56:45;99402.25;;;16.52;100.00
64616;BME280;51027;42.162;24.754;2023-05-22T03:59:10;99395.97;;;16.40;100.00
64616;BME280;51027;42.162;24.754;2023-05-22T04:01:36;99397.81;;;16.65;100.00
64616;BME280;51027;42.162;24.754;2023-05-22T04:04:04;99401.88;;;16.71;100.00
64616;BME280;51027;42.162;24.754;2023-05-22T04:06:30;99402.59;;;16.60;100.00
64616;BME280;51027;42.162;24.754;2023-05-22T04:08:57;99400.78;;;16.61;100.00
64616;BME280;51027;42.162;24.754;2023-05-22T04:11:23;99398.66;;;16.66;100.00
64616;BME280;51027;42.162;24.754;2023-05-22T04:13:48;99404.13;;;16.77;100.00
64616;BME280;51027;42.162;24.754;2023-05-22T04:16:15;99405.31;;;16.86;100.00
64616;BME280;51027;42.162;24.754;2023-05-22T04:18:41;99402.41;;;16.89;100.00
64616;BME280;51027;42.162;24.754;2023-05-22T04:21:07;99401.78;;;16.98;100.00
64616;BME280;51027;42.162;24.754;2023-05-22T04:23:34;99404.22;;;16.76;100.00
64616;BME280;51027;42.162;24.754;2023-05-22T04:25:59;99399.38;;;16.42;100.00
64616;BME280;51027;42.162;24.754;2023-05-22T04:28:26;99401.63;;;16.49;100.00
64616;BME280;51027;42.162;24.754;2023-05-22T04:30:55;99399.81;;;16.62;100.00
64616;BME280;51027;42.162;24.754;2023-05-22T04:33:22;99380.00;;;16.40;100.00
64616;BME280;51027;42.162;24.754;2023-05-22T04:35:49;99400.81;;;16.21;100.00
64616;BME280;51027;42.162;24.754;2023-05-22T04:38:14;99363.75;;;15.93;100.00
64616;BME280;51027;42.162;24.754;2023-05-22T04:40:42;99409.75;;;16.20;100.00
64616;BME280;51027;42.162;24.754;2023-05-22T04:43:08;99416.16;;;16.30;100.00
64616;BME280;51027;42.162;24.754;2023-05-22T04:45:35;99413.16;;;16.22;100.00
64616;BME280;51027;42.162;24.754;2023-05-22T04:48:00;99413.84;;;16.11;100.00
64616;BME280;51027;42.162;24.754;2023-05-22T04:50:27;99415.63;;;16.38;100.00
64616;BME280;51027;42.162;24.754;2023-05-22T04:52:54;99411.81;;;16.55;100.00
64616;BME280;51027;42.162;24.754;2023-05-22T04:55:19;99394.38;;;16.38;100.00
64616;BME280;51027;42.162;24.754;2023-05-22T04:57:46;99405.59;;;16.68;100.00
64616;BME280;51027;42.162;24.754;2023-05-22T05:00:12;99409.63;;;16.74;100.00
64616;BME280;51027;42.162;24.754;2023-05-22T05:02:39;99418.69;;;16.84;100.00
64616;BME280;51027;42.162;24.754;2023-05-22T05:05:05;99421.56;;;16.81;100.00
64616;BME280;51027;42.162;24.754;2023-05-22T05:07:30;99425.41;;;16.90;100.00
64616;BME280;51027;42.162;24.754;2023-05-22T05:09:56;99422.09;;;16.86;100.00
64616;BME280;51027;42.162;24.754;2023-05-22T05:12:21;99422.09;;;16.86;100.00
64616;BME280;51027;42.162;24.754;2023-05-22T05:14:47;99409.63;;;16.74;100.00
64616;BME280;51027;42.162;24.754;2023-05-22T05:17:12;99419.22;;;16.89;100.00
64616;BME280;51027;42.162;24.754;2023-05-22T05:19:37;99414.88;;;16.88;100.00
64616;BME280;51027;42.162;24.754;2023-05-22T05:22:03;99422.28;;;16.83;100.00
64616;BME280;51027;42.162;24.754;2023-05-22T05:24:29;99419.84;;;17.06;100.00
64616;BME280;51027;42.162;24.754;2023-05-22T05:26:54;99429.53;;;16.94;100.00
64616;BME280;51027;42.162;24.754;2023-05-22T05:29:20;99429.66;;;16.80;100.00
64616;BME280;51027;42.162;24.754;2023-05-22T05:31:49;99422.09;;;16.99;100.00
64616;BME280;51027;42.162;24.754;2023-05-22T05:34:15;99427.19;;;17.02;100.00
64616;BME280;51027;42.162;24.754;2023-05-22T05:36:40;99427.50;;;16.72;100.00
64616;BME280;51027;42.162;24.754;2023-05-22T05:39:06;99426.47;;;16.87;100.00
64616;BME280;51027;42.162;24.754;2023-05-22T05:41:31;99431.44;;;16.66;100.00
64616;BME280;51027;42.162;24.754;2023-05-22T05:43:56;99429.75;;;16.78;100.00
64616;BME280;51027;42.162;24.754;2023-05-22T05:46:24;99418.13;;;16.66;100.00
64616;BME280;51027;42.162;24.754;2023-05-22T05:48:49;99439.53;;;16.90;100.00
64616;BME280;51027;42.162;24.754;2023-05-22T05:51:18;99448.38;;;17.04;100.00
64616;BME280;51027;42.162;24.754;2023-05-22T05:53:44;99446.78;;;17.14;100.00
64616;BME280;51027;42.162;24.754;2023-05-22T05:56:10;99446.03;;;17.12;100.00
64616;BME280;51027;42.162;24.754;2023-05-22T05:58:35;99442.94;;;17.18;100.00
64616;BME280;51027;42.162;24.754;2023-05-22T06:01:01;99454.22;;;17.21;100.00
64616;BME280;51027;42.162;24.754;2023-05-22T06:03:27;99447.72;;;17.38;100.00
64616;BME280;51027;42.162;24.754;2023-05-22T06:05:52;99432.09;;;17.08;100.00
64616;BME280;51027;42.162;24.754;2023-05-22T06:08:18;99456.31;;;17.42;100.00
64616;BME280;51027;42.162;24.754;2023-05-22T06:10:46;99454.09;;;17.85;100.00
64616;BME280;51027;42.162;24.754;2023-05-22T06:13:12;99457.97;;;17.81;100.00
64616;BME280;51027;42.162;24.754;2023-05-22T06:15:38;99462.09;;;17.85;100.00
64616;BME280;51027;42.162;24.754;2023-05-22T06:18:03;99467.66;;;18.06;100.00
64616;BME280;51027;42.162;24.754;2023-05-22T06:20:29;99473.84;;;18.54;100.00
64616;BME280;51027;42.162;24.754;2023-05-22T06:22:55;99467.44;;;18.92;98.23
64616;BME280;51027;42.162;24.754;2023-05-22T06:25:20;99464.25;;;18.52;96.83
64616;BME280;51027;42.162;24.754;2023-05-22T06:27:47;99456.66;;;19.05;96.25
64616;BME280;51027;42.162;24.754;2023-05-22T06:30:13;99469.41;;;19.35;93.11
64616;BME280;51027;42.162;24.754;2023-05-22T06:32:39;99470.84;;;19.39;93.17
64616;BME280;51027;42.162;24.754;2023-05-22T06:35:05;99470.25;;;19.13;89.59
64616;BME280;51027;42.162;24.754;2023-05-22T06:37:30;99450.94;;;18.98;90.96
64616;BME280;51027;42.162;24.754;2023-05-22T06:39:59;99455.81;;;19.15;86.98
64616;BME280;51027;42.162;24.754;2023-05-22T06:42:25;99476.06;;;19.18;87.67
64616;BME280;51027;42.162;24.754;2023-05-22T06:44:51;99480.22;;;19.44;85.29
64616;BME280;51027;42.162;24.754;2023-05-22T06:47:17;99481.94;;;19.68;85.52
64616;BME280;51027;42.162;24.754;2023-05-22T06:49:42;99479.25;;;19.45;81.03
64616;BME280;51027;42.162;24.754;2023-05-22T06:52:07;99466.25;;;19.29;80.49
64616;BME280;51027;42.162;24.754;2023-05-22T06:54:34;99476.47;;;19.69;79.67
64616;BME280;51027;42.162;24.754;2023-05-22T06:56:59;99471.69;;;19.95;80.26
64616;BME280;51027;42.162;24.754;2023-05-22T06:59:25;99483.75;;;19.78;77.54
64616;BME280;51027;42.162;24.754;2023-05-22T07:01:50;99483.50;;;19.70;77.35
64616;BME280;51027;42.162;24.754;2023-05-22T07:04:16;99483.25;;;19.96;77.53
64616;BME280;51027;42.162;24.754;2023-05-22T07:06:41;99479.34;;;20.00;76.12
64616;BME280;51027;42.162;24.754;2023-05-22T07:09:07;99476.22;;;20.27;76.04
64616;BME280;51027;42.162;24.754;2023-05-22T07:11:33;99483.81;;;19.99;73.04
64616;BME280;51027;42.162;24.754;2023-05-22T07:14:03;99483.34;;;20.37;73.28
64616;BME280;51027;42.162;24.754;2023-05-22T07:16:29;99483.94;;;20.52;73.89
64616;BME280;51027;42.162;24.754;2023-05-22T07:18:56;99489.34;;;20.62;73.46
64616;BME280;51027;42.162;24.754;2023-05-22T07:21:22;99487.34;;;20.54;73.41
64616;BME280;51027;42.162;24.754;2023-05-22T07:23:50;99478.34;;;20.55;72.10
64616;BME280;51027;42.162;24.754;2023-05-22T07:26:16;99464.56;;;20.60;72.95
64616;BME280;51027;42.162;24.754;2023-05-22T07:28:42;99485.78;;;20.73;68.69
64616;BME280;51027;42.162;24.754;2023-05-22T07:31:08;99471.03;;;20.99;69.48
64616;BME280;51027;42.162;24.754;2023-05-22T07:33:33;99474.50;;;20.90;71.05
64616;BME280;51027;42.162;24.754;2023-05-22T07:35:59;99485.53;;;21.17;69.99
64616;BME280;51027;42.162;24.754;2023-05-22T07:38:25;99484.25;;;21.21;67.28
64616;BME280;51027;42.162;24.754;2023-05-22T07:40:51;99474.25;;;21.23;66.84
64616;BME280;51027;42.162;24.754;2023-05-22T07:43:16;99479.69;;;21.33;70.08
64616;BME280;51027;42.162;24.754;2023-05-22T07:45:42;99471.88;;;21.51;70.25
64616;BME280;51027;42.162;24.754;2023-05-22T07:48:08;99480.81;;;21.61;68.20
64616;BME280;51027;42.162;24.754;2023-05-22T07:50:33;99475.72;;;21.58;70.39
64616;BME280;51027;42.162;24.754;2023-05-22T07:52:59;99480.78;;;21.92;67.06
64616;BME280;51027;42.162;24.754;2023-05-22T07:55:25;99455.38;;;21.55;65.87
64616;BME280;51027;42.162;24.754;2023-05-22T07:57:53;99477.09;;;21.52;65.06
64616;BME280;51027;42.162;24.754;2023-05-22T08:00:19;99468.59;;;21.38;66.84
64616;BME280;51027;42.162;24.754;2023-05-22T08:02:45;99472.25;;;21.67;66.09
64616;BME280;51027;42.162;24.754;2023-05-22T08:05:10;99476.69;;;21.47;64.43
64616;BME280;51027;42.162;24.754;2023-05-22T08:07:36;99462.38;;;21.68;64.57
64616;BME280;51027;42.162;24.754;2023-05-22T08:10:05;99480.59;;;21.43;62.30
64616;BME280;51027;42.162;24.754;2023-05-22T08:12:30;99471.78;;;21.62;63.15
64616;BME280;51027;42.162;24.754;2023-05-22T08:14:56;99481.84;;;21.70;63.74
64616;BME280;51027;42.162;24.754;2023-05-22T08:17:21;99481.00;;;22.09;63.74
64616;BME280;51027;42.162;24.754;2023-05-22T08:19:47;99469.31;;;22.49;60.27
64616;BME280;51027;42.162;24.754;2023-05-22T08:22:12;99426.63;;;22.46;60.94
64616;BME280;51027;42.162;24.754;2023-05-22T08:24:38;99472.13;;;22.86;59.99
64616;BME280;51027;42.162;24.754;2023-05-22T08:27:03;99473.94;;;22.76;59.88
64616;BME280;51027;42.162;24.754;2023-05-22T08:29:29;99462.78;;;22.90;59.29
64616;BME280;51027;42.162;24.754;2023-05-22T08:31:55;99464.75;;;22.98;57.97
64616;BME280;51027;42.162;24.754;2023-05-22T08:34:22;99467.56;;;22.96;56.28
64616;BME280;51027;42.162;24.754;2023-05-22T08:36:48;99472.06;;;23.06;55.21
64616;BME280;51027;42.162;24.754;2023-05-22T08:39:14;99472.03;;;23.25;54.71
64616;BME280;51027;42.162;24.754;2023-05-22T08:41:40;99472.09;;;22.96;54.62
64616;BME280;51027;42.162;24.754;2023-05-22T08:44:08;99469.41;;;22.57;57.04
64616;BME280;51027;42.162;24.754;2023-05-22T08:46:35;99471.50;;;23.12;55.88
64616;BME280;51027;42.162;24.754;2023-05-22T08:49:03;99471.47;;;23.21;55.82
64616;BME280;51027;42.162;24.754;2023-05-22T08:51:32;99427.47;;;23.32;55.80
64616;BME280;51027;42.162;24.754;2023-05-22T08:53:57;99474.19;;;23.49;54.80
64616;BME280;51027;42.162;24.754;2023-05-22T08:56:24;99456.69;;;23.45;55.80
64616;BME280;51027;42.162;24.754;2023-05-22T08:58:50;99467.75;;;23.42;56.44
64616;BME280;51027;42.162;24.754;2023-05-22T09:01:16;99448.34;;;23.01;56.21
64616;BME280;51027;42.162;24.754;2023-05-22T09:03:43;99462.63;;;23.39;57.11
64616;BME280;51027;42.162;24.754;2023-05-22T09:06:09;99464.63;;;23.37;56.85
64616;BME280;51027;42.162;24.754;2023-05-22T09:08:36;99462.34;;;23.05;57.64
64616;BME280;51027;42.162;24.754;2023-05-22T09:11:02;99459.81;;;22.74;58.03
64616;BME280;51027;42.162;24.754;2023-05-22T09:13:29;99451.78;;;22.84;57.61
64616;BME280;51027;42.162;24.754;2023-05-22T09:16:13;99459.50;;;23.06;57.40
64616;BME280;51027;42.162;24.754;2023-05-22T09:18:40;99461.16;;;23.64;56.50
64616;BME280;51027;42.162;24.754;2023-05-22T09:21:10;99461.22;;;23.81;55.99
64616;BME280;51027;42.162;24.754;2023-05-22T09:23:36;99455.16;;;23.42;57.01
64616;BME280;51027;42.162;24.754;2023-05-22T09:26:02;99448.28;;;23.57;57.11
64616;BME280;51027;42.162;24.754;2023-05-22T09:28:35;99457.59;;;23.73;55.60
64616;BME280;51027;42.162;24.754;2023-05-22T09:31:01;99454.16;;;23.43;57.96
64616;BME280;51027;42.162;24.754;2023-05-22T09:33:28;99452.91;;;23.28;57.91
64616;BME280;51027;42.162;24.754;2023-05-22T09:35:54;99452.28;;;23.07;57.26
64616;BME280;51027;42.162;24.754;2023-05-22T09:38:26;99452.19;;;22.89;56.01
64616;BME280;51027;42.162;24.754;2023-05-22T09:40:52;99447.31;;;23.59;55.65
64616;BME280;51027;42.162;24.754;2023-05-22T09:43:20;99446.88;;;23.53;54.41
64616;BME280;51027;42.162;24.754;2023-05-22T09:45:46;99427.59;;;22.93;55.43
64616;BME280;51027;42.162;24.754;2023-05-22T09:48:15;99445.09;;;23.44;55.73
64616;BME280;51027;42.162;24.754;2023-05-22T09:50:43;99448.13;;;23.32;55.69
64616;BME280;51027;42.162;24.754;2023-05-22T09:53:10;99441.97;;;23.12;56.70
64616;BME280;51027;42.162;24.754;2023-05-22T09:55:36;99434.44;;;23.15;55.08
64616;BME280;51027;42.162;24.754;2023-05-22T09:58:03;99436.09;;;23.26;56.05
64616;BME280;51027;42.162;24.754;2023-05-22T10:00:32;99427.50;;;23.22;55.43
64616;BME280;51027;42.162;24.754;2023-05-22T10:03:01;99431.78;;;23.43;54.52
64616;BME280;51027;42.162;24.754;2023-05-22T10:05:32;99429.31;;;23.32;55.69
64616;BME280;51027;42.162;24.754;2023-05-22T10:08:08;99431.00;;;23.88;54.43
64616;BME280;51027;42.162;24.754;2023-05-22T10:10:42;99430.75;;;23.63;56.69
64616;BME280;51027;42.162;24.754;2023-05-22T10:13:11;99416.91;;;23.48;54.68
64616;BME280;51027;42.162;24.754;2023-05-22T10:15:38;99425.72;;;23.96;52.87
64616;BME280;51027;42.162;24.754;2023-05-22T10:18:04;99420.38;;;24.49;53.23
64616;BME280;51027;42.162;24.754;2023-05-22T10:20:30;99427.34;;;24.60;51.72
64616;BME280;51027;42.162;24.754;2023-05-22T10:22:55;99426.84;;;24.56;50.74
64616;BME280;51027;42.162;24.754;2023-05-22T10:25:21;99410.66;;;24.56;51.74
64616;BME280;51027;42.162;24.754;2023-05-22T10:27:48;99428.25;;;24.86;49.77
64616;BME280;51027;42.162;24.754;2023-05-22T10:31:03;99420.38;;;24.49;50.30
64616;BME280;51027;42.162;24.754;2023-05-22T10:33:37;99427.00;;;24.55;49.68
64616;BME280;51027;42.162;24.754;2023-05-22T10:36:07;99427.69;;;24.83;48.55
64616;BME280;51027;42.162;24.754;2023-05-22T10:39:00;99422.22;;;24.49;49.99
64616;BME280;51027;42.162;24.754;2023-05-22T10:41:29;99415.88;;;24.76;47.73
64616;BME280;51027;42.162;24.754;2023-05-22T10:43:55;99416.97;;;24.91;48.16
64616;BME280;51027;42.162;24.754;2023-05-22T10:46:22;99412.66;;;25.24;48.94
64616;BME280;51027;42.162;24.754;2023-05-22T10:48:49;99414.38;;;25.25;47.31
64616;BME280;51027;42.162;24.754;2023-05-22T10:51:21;99401.72;;;24.99;47.37
64616;BME280;51027;42.162;24.754;2023-05-22T10:53:50;99402.47;;;25.10;46.78
64616;BME280;51027;42.162;24.754;2023-05-22T10:56:19;99366.06;;;25.06;46.21
64616;BME280;51027;42.162;24.754;2023-05-22T10:58:55;99399.13;;;25.50;46.69
64616;BME280;51027;42.162;24.754;2023-05-22T11:01:24;99383.59;;;25.44;46.73
64616;BME280;51027;42.162;24.754;2023-05-22T11:06:42;99379.06;;;25.10;46.31
64616;BME280;51027;42.162;24.754;2023-05-22T11:17:25;99372.38;;;25.22;45.25
64616;BME280;51027;42.162;24.754;2023-05-22T11:20:22;99379.16;;;24.75;45.62
64616;BME280;51027;42.162;24.754;2023-05-22T11:22:58;99389.00;;;24.04;45.97
64616;BME280;51027;42.162;24.754;2023-05-22T11:25:25;99387.09;;;23.69;46.14
64616;BME280;51027;42.162;24.754;2023-05-22T11:27:52;99371.38;;;23.92;46.38
64616;BME280;51027;42.162;24.754;2023-05-22T11:30:17;99377.13;;;23.79;46.97
64616;BME280;51027;42.162;24.754;2023-05-22T11:32:45;99385.13;;;23.71;48.00
64616;BME280;51027;42.162;24.754;2023-05-22T11:35:18;99390.56;;;23.62;48.30
64616;BME280;51027;42.162;24.754;2023-05-22T11:37:45;99393.47;;;23.41;48.39
64616;BME280;51027;42.162;24.754;2023-05-22T11:40:18;99411.06;;;23.25;49.01
64616;BME280;51027;42.162;24.754;2023-05-22T11:42:54;99437.34;;;22.75;55.52
64616;BME280;51027;42.162;24.754;2023-05-22T11:45:21;99442.34;;;21.72;65.03
64616;BME280;51027;42.162;24.754;2023-05-22T11:47:46;99445.69;;;20.82;72.80
64616;BME280;51027;42.162;24.754;2023-05-22T11:50:12;99451.13;;;20.39;75.13
64616;BME280;51027;42.162;24.754;2023-05-22T11:52:40;99449.94;;;19.89;88.43
64616;BME280;51027;42.162;24.754;2023-05-22T11:55:07;99475.00;;;19.32;100.00
64616;BME280;51027;42.162;24.754;2023-05-22T11:57:33;99467.88;;;18.75;86.50
64616;BME280;51027;42.162;24.754;2023-05-22T12:00:00;99456.63;;;18.58;91.26
64616;BME280;51027;42.162;24.754;2023-05-22T12:02:26;99450.69;;;18.55;91.47
64616;BME280;51027;42.162;24.754;2023-05-22T12:04:53;99434.84;;;18.64;84.07
64616;BME280;51027;42.162;24.754;2023-05-22T12:07:20;99421.63;;;18.63;90.62
64616;BME280;51027;42.162;24.754;2023-05-22T12:09:46;99418.38;;;18.35;97.88
64616;BME280;51027;42.162;24.754;2023-05-22T12:12:15;99413.41;;;18.31;100.00
64616;BME280;51027;42.162;24.754;2023-05-22T12:14:43;99385.91;;;18.06;100.00
64616;BME280;51027;42.162;24.754;2023-05-22T12:17:11;99414.03;;;18.10;100.00
64616;BME280;51027;42.162;24.754;2023-05-22T12:19:41;99408.06;;;18.31;100.00
64616;BME280;51027;42.162;24.754;2023-05-22T12:22:10;99402.91;;;18.52;100.00
64616;BME280;51027;42.162;24.754;2023-05-22T12:24:43;99405.75;;;18.37;100.00
64616;BME280;51027;42.162;24.754;2023-05-22T12:27:12;99399.88;;;18.56;100.00
64616;BME280;51027;42.162;24.754;2023-05-22T12:29:38;99406.44;;;18.63;100.00
64616;BME280;51027;42.162;24.754;2023-05-22T12:32:06;99406.38;;;18.65;100.00
64616;BME280;51027;42.162;24.754;2023-05-22T12:34:33;99391.88;;;18.56;100.00
64616;BME280;51027;42.162;24.754;2023-05-22T12:36:59;99401.44;;;18.59;100.00
64616;BME280;51027;42.162;24.754;2023-05-22T12:39:24;99405.06;;;18.82;100.00
64616;BME280;51027;42.162;24.754;2023-05-22T12:41:50;99402.88;;;18.76;100.00
64616;BME280;51027;42.162;24.754;2023-05-22T12:44:16;99353.03;;;18.30;100.00
64616;BME280;51027;42.162;24.754;2023-05-22T12:46:41;99400.84;;;18.90;100.00
64616;BME280;51027;42.162;24.754;2023-05-22T12:49:07;99405.94;;;19.05;100.00
64616;BME280;51027;42.162;24.754;2023-05-22T12:51:33;99406.31;;;19.11;100.00
64616;BME280;51027;42.162;24.754;2023-05-22T12:54:02;99400.72;;;18.92;100.00
64616;BME280;51027;42.162;24.754;2023-05-22T12:56:29;99401.91;;;19.66;100.00
64616;BME280;51027;42.162;24.754;2023-05-22T12:58:57;99406.03;;;20.46;100.00
64616;BME280;51027;42.162;24.754;2023-05-22T13:01:23;99398.97;;;20.45;93.50
64616;BME280;51027;42.162;24.754;2023-05-22T13:03:52;99376.19;;;21.02;87.09
64616;BME280;51027;42.162;24.754;2023-05-22T13:06:18;99390.72;;;21.30;85.47
64616;BME280;51027;42.162;24.754;2023-05-22T13:08:44;99387.81;;;21.52;77.62